| time (UTC) | temp F | wind direction | speed MPH | gust MPH | rain 1hr in | rain 24hr in | rain mn in | humidity % | barometer mb |
| 20260507000041 | 57 | 296 | 1.0 | 6.0 | 0.00 | 0.00 | 0.00 | 26 | 1014.8 |
| 20260506234535 | 56 | 262 | 1.0 | 10.0 | 0.00 | 0.00 | 0.00 | 27 | 1014.9 |
| 20260506233052 | 57 | 307 | 2.0 | 5.0 | 0.00 | 0.00 | 0.00 | 26 | 1015.0 |
| 20260506231543 | 57 | 325 | 1.0 | 5.0 | 0.00 | 0.00 | 0.00 | 27 | 1015.2 |
| 20260506230045 | 58 | 310 | 1.0 | 2.0 | 0.00 | 0.00 | 0.00 | 27 | 1015.3 |
| 20260506224542 | 57 | 283 | 2.0 | 9.0 | 0.00 | 0.00 | 0.00 | 28 | 1015.3 |
| 20260506223036 | 58 | 296 | 2.0 | 8.0 | 0.00 | 0.00 | 0.00 | 27 | 1015.5 |
| 20260506221535 | 58 | 284 | 2.0 | 8.0 | 0.00 | 0.00 | 0.00 | 26 | 1015.7 |
| 20260506220049 | 59 | 269 | 3.0 | 10.0 | 0.00 | 0.00 | 0.00 | 26 | 1015.8 |
| 20260506214550 | 58 | 244 | 4.0 | 12.0 | 0.00 | 0.00 | 0.00 | 26 | 1015.9 |
| 20260506213041 | 58 | 335 | 1.0 | 9.0 | 0.00 | 0.00 | 0.00 | 28 | 1016.0 |
| 20260506211542 | 57 | 333 | 3.0 | 10.0 | 0.00 | 0.00 | 0.00 | 28 | 1016.1 |
| 20260506210041 | 58 | 300 | 2.0 | 6.0 | 0.00 | 0.00 | 0.00 | 28 | 1016.3 |
| 20260506204550 | 57 | 271 | 3.0 | 11.0 | 0.00 | 0.00 | 0.00 | 30 | 1016.6 |
| 20260506203046 | 56 | 259 | 3.0 | 10.0 | 0.00 | 0.00 | 0.00 | 27 | 1016.6 |
| 20260506201541 | 56 | 356 | 1.0 | 5.0 | 0.00 | 0.00 | 0.00 | 30 | 1016.7 |
| 20260506200048 | 56 | 323 | 2.0 | 5.0 | 0.00 | 0.00 | 0.00 | 29 | 1017.0 |
| 20260506194536 | 56 | 304 | 2.0 | 4.0 | 0.00 | 0.00 | 0.00 | 30 | 1017.1 |
| 20260506193035 | 56 | 311 | 3.0 | 9.0 | 0.00 | 0.00 | 0.00 | 32 | 1017.2 |
| 20260506191548 | 56 | 290 | 2.0 | 7.0 | 0.00 | 0.00 | 0.00 | 30 | 1017.3 |
| 20260506190043 | 54 | 37 | 1.0 | 8.0 | 0.00 | 0.00 | 0.00 | 33 | 1017.5 |
| 20260506184540 | 54 | 345 | 1.0 | 10.0 | 0.00 | 0.00 | 0.00 | 32 | 1017.6 |
| 20260506183035 | 53 | 0 | 1.0 | 7.0 | 0.00 | 0.00 | 0.00 | 33 | 1017.7 |
| 20260506181555 | 52 | 91 | 2.0 | 6.0 | 0.00 | 0.00 | 0.00 | 32 | 1018.1 |
| 20260506180104 | 53 | 240 | 2.0 | 5.0 | 0.00 | 0.00 | 0.00 | 32 | 1018.1 |
| 20260506174541 | 53 | 355 | 3.0 | 11.0 | 0.00 | 0.00 | 0.00 | 31 | 1018.3 |
| 20260506173045 | 54 | 335 | 2.0 | 5.0 | 0.00 | 0.00 | 0.00 | 32 | 1018.4 |
| 20260506171535 | 53 | 265 | 3.0 | 14.0 | 0.00 | 0.00 | 0.00 | 32 | 1018.4 |
| 20260506170046 | 53 | 274 | 1.0 | 7.0 | 0.00 | 0.00 | 0.00 | 34 | 1018.4 |
| 20260506164544 | 53 | 227 | 2.0 | 5.0 | 0.00 | 0.00 | 0.00 | 32 | 1018.5 |
| 20260506163044 | 53 | 307 | 1.0 | 5.0 | 0.00 | 0.00 | 0.00 | 36 | 1018.6 |
| 20260506161536 | 51 | 27 | 2.0 | 4.0 | 0.00 | 0.00 | 0.00 | 38 | 1018.7 |
| 20260506160037 | 51 | 310 | 1.0 | 4.0 | 0.00 | 0.00 | 0.00 | 40 | 1018.5 |
| 20260506154549 | 50 | 289 | 1.0 | 3.0 | 0.00 | 0.00 | 0.00 | 41 | 1018.4 |
| 20260506153040 | 50 | 340 | 1.0 | 4.0 | 0.00 | 0.00 | 0.00 | 41 | 1018.7 |
| 20260506151541 | 49 | 291 | 1.0 | 4.0 | 0.00 | 0.00 | 0.00 | 43 | 1018.7 |
| 20260506150040 | 47 | 267 | 1.0 | 5.0 | 0.00 | 0.00 | 0.00 | 47 | 1018.6 |
| 20260506144600 | 46 | 0 | 0.0 | 4.0 | 0.00 | 0.00 | 0.00 | 51 | 1018.6 |
| 20260506143043 | 45 | 305 | 0.0 | 3.0 | 0.00 | 0.00 | 0.00 | 51 | 1018.7 |
| 20260506141541 | 44 | 311 | 0.0 | 2.0 | 0.00 | 0.00 | 0.00 | 52 | 1018.7 |
| 20260506140043 | 43 | 0 | 0.0 | 5.0 | 0.00 | 0.00 | 0.00 | 52 | 1018.6 |
| 20260506134536 | 43 | 0 | 0.0 | 1.0 | 0.00 | 0.00 | 0.00 | 53 | 1018.6 |
| 20260506133041 | 42 | 0 | 0.0 | 1.0 | 0.00 | 0.00 | 0.00 | 56 | 1018.5 |
| 20260506131542 | 41 | 0 | 0.0 | 1.0 | 0.00 | 0.00 | 0.00 | 57 | 1018.5 |
| 20260506130044 | 39 | 0 | 0.0 | 1.0 | 0.00 | 0.00 | 0.00 | 60 | 1018.5 |
| 20260506124543 | 38 | 0 | 0.0 | 1.0 | 0.00 | 0.00 | 0.00 | 63 | 1018.3 |
| 20260506123041 | 36 | 0 | 0.0 | 1.0 | 0.00 | 0.00 | 0.00 | 67 | 1018.2 |
| 20260506121536 | 34 | 0 | 0.0 | 1.0 | 0.00 | 0.00 | 0.00 | 69 | 1018.0 |
| 20260506120046 | 33 | 0 | 0.0 | 0.0 | 0.00 | 0.00 | 0.00 | 71 | 1017.9 |
| 20260506114541 | 33 | 0 | 0.0 | 0.0 | 0.00 | 0.00 | 0.00 | 72 | 1017.6 |
| 20260506113042 | 32 | 0 | 0.0 | 0.0 | 0.00 | 0.00 | 0.00 | 72 | 1017.3 |
| 20260506111540 | 32 | 0 | 0.0 | 0.0 | 0.00 | 0.00 | 0.00 | 73 | 1017.3 |
| 20260506110038 | 33 | 0 | 0.0 | 0.0 | 0.00 | 0.00 | 0.00 | 70 | 1017.0 |
| 20260506104548 | 34 | 0 | 0.0 | 0.0 | 0.00 | 0.00 | 0.00 | 68 | 1016.7 |
| 20260506103041 | 34 | 0 | 0.0 | 0.0 | 0.00 | 0.00 | 0.00 | 66 | 1016.5 |
| 20260506101542 | 34 | 0 | 0.0 | 0.0 | 0.00 | 0.00 | 0.00 | 66 | 1016.6 |
| 20260506100042 | 34 | 0 | 0.0 | 0.0 | 0.00 | 0.00 | 0.00 | 67 | 1016.7 |
| 20260506094539 | 34 | 0 | 0.0 | 0.0 | 0.00 | 0.00 | 0.00 | 67 | 1016.8 |
| 20260506093040 | 34 | 0 | 0.0 | 0.0 | 0.00 | 0.00 | 0.00 | 66 | 1016.4 |
| 20260506091544 | 34 | 0 | 0.0 | 0.0 | 0.00 | 0.00 | 0.00 | 66 | 1016.3 |
| 20260506090044 | 35 | 0 | 0.0 | 0.0 | 0.00 | 0.00 | 0.00 | 65 | 1016.3 |
| 20260506084541 | 35 | 0 | 0.0 | 0.0 | 0.00 | 0.00 | 0.00 | 64 | 1016.2 |
| 20260506083042 | 36 | 0 | 0.0 | 1.0 | 0.00 | 0.00 | 0.00 | 63 | 1016.1 |
| 20260506081537 | 36 | 0 | 0.0 | 1.0 | 0.00 | 0.00 | 0.00 | 62 | 1016.2 |
| 20260506073050 | 37 | 0 | 0.0 | 0.0 | 0.00 | 0.00 | 0.00 | 61 | 1015.8 |
| 20260506071541 | 37 | 0 | 0.0 | 0.0 | 0.00 | 0.00 | 0.00 | 61 | 1015.9 |
| 20260506061544 | 39 | 0 | 0.0 | 0.0 | 0.00 | 0.00 | 0.00 | 58 | 1015.8 |
| 20260506044548 | 42 | 0 | 0.0 | 1.0 | 0.00 | 0.00 | 0.00 | 48 | 1015.0 |
| 20260506043046 | 42 | 0 | 0.0 | 1.0 | 0.00 | 0.00 | 0.00 | 48 | 1015.1 |
| 20260506041551 | 43 | 0 | 0.0 | 0.0 | 0.00 | 0.00 | 0.00 | 47 | 1015.2 |
| 20260506040046 | 43 | 0 | 0.0 | 1.0 | 0.00 | 0.00 | 0.00 | 46 | 1015.2 |
| 20260506034549 | 44 | 0 | 0.0 | 1.0 | 0.00 | 0.00 | 0.00 | 45 | 1015.2 |
| 20260506033042 | 44 | 0 | 0.0 | 1.0 | 0.00 | 0.00 | 0.00 | 45 | 1015.1 |
| 20260506031546 | 45 | 0 | 0.0 | 1.0 | 0.00 | 0.00 | 0.00 | 44 | 1015.0 |
| 20260506030047 | 45 | 0 | 0.0 | 1.0 | 0.00 | 0.00 | 0.00 | 43 | 1014.7 |
| 20260506024547 | 46 | 0 | 0.0 | 1.0 | 0.00 | 0.00 | 0.00 | 42 | 1014.4 |
| 20260506023044 | 47 | 0 | 0.0 | 1.0 | 0.00 | 0.00 | 0.00 | 41 | 1014.2 |
| 20260506021546 | 47 | 2 | 0.0 | 1.0 | 0.00 | 0.00 | 0.00 | 39 | 1013.9 |
| 20260506020044 | 48 | 0 | 0.0 | 1.0 | 0.00 | 0.00 | 0.00 | 39 | 1013.8 |
| 20260506014541 | 48 | 357 | 0.0 | 2.0 | 0.00 | 0.00 | 0.00 | 39 | 1013.6 |
| 20260506013046 | 49 | 39 | 0.0 | 1.0 | 0.00 | 0.00 | 0.00 | 38 | 1013.4 |
| 20260506011559 | 49 | 0 | 0.0 | 1.0 | 0.00 | 0.00 | 0.00 | 36 | 1013.3 |
| 20260506010035 | 50 | 344 | 0.0 | 1.0 | 0.00 | 0.00 | 0.00 | 36 | 1013.3 |
| 20260506004546 | 50 | 4 | 1.0 | 3.0 | 0.00 | 0.00 | 0.00 | 34 | 1013.2 |
| 20260506003042 | 51 | 339 | 0.0 | 3.0 | 0.00 | 0.00 | 0.00 | 34 | 1013.1 |
| 20260506001542 | 52 | 326 | 0.0 | 3.0 | 0.00 | 0.00 | 0.00 | 34 | 1013.0 |